Terminal Aerodrome Forecast
Issued by NWS Billings, MT

Home | Current Version | Previous Version | Text Only | Print | Product List | Glossary On
Versions: 1 2 3 4 5 6 7 8 9 10 11 12 13 14 15
000
FTUS45 KBYZ 251121
TAFSHR
TAF
KSHR 251121Z 2512/2612 VRB03KT P6SM SKC
     FM252200 VRB06KT P6SM VCTS SCT100CB BKN150
     FM260600 30006KT P6SM SCT120=

USA.gov is the U.S. government's official web portal to all federal, state and local government web resources and services.